sensor_id;sensor_type;location;lat;lon;timestamp;temperature;humidity
13203;DHT22;6666;51.626;7.530;2023-02-16T00:01:25;4.30;99.90
13203;DHT22;6666;51.626;7.530;2023-02-16T00:03:55;4.20;99.90
13203;DHT22;6666;51.626;7.530;2023-02-16T00:06:24;4.20;99.90
13203;DHT22;6666;51.626;7.530;2023-02-16T00:08:55;4.20;99.90
13203;DHT22;6666;51.626;7.530;2023-02-16T00:11:27;4.20;99.90
13203;DHT22;6666;51.626;7.530;2023-02-16T00:14:15;4.10;99.90
13203;DHT22;6666;51.626;7.530;2023-02-16T00:16:43;4.10;99.90
13203;DHT22;6666;51.626;7.530;2023-02-16T00:19:18;4.10;99.90
13203;DHT22;6666;51.626;7.530;2023-02-16T00:21:46;4.00;99.90
13203;DHT22;6666;51.626;7.530;2023-02-16T00:24:16;4.00;99.90
13203;DHT22;6666;51.626;7.530;2023-02-16T00:26:45;4.00;99.90
13203;DHT22;6666;51.626;7.530;2023-02-16T00:29:18;3.90;99.90
13203;DHT22;6666;51.626;7.530;2023-02-16T00:31:47;3.80;99.90
13203;DHT22;6666;51.626;7.530;2023-02-16T00:34:25;3.80;99.90
13203;DHT22;6666;51.626;7.530;2023-02-16T00:36:55;3.80;99.90
13203;DHT22;6666;51.626;7.530;2023-02-16T00:39:25;3.80;99.90
13203;DHT22;6666;51.626;7.530;2023-02-16T00:41:55;3.70;99.90
13203;DHT22;6666;51.626;7.530;2023-02-16T00:44:30;3.80;99.90
13203;DHT22;6666;51.626;7.530;2023-02-16T00:47:01;3.70;99.90
13203;DHT22;6666;51.626;7.530;2023-02-16T00:49:30;3.70;99.90
13203;DHT22;6666;51.626;7.530;2023-02-16T00:51:58;3.70;99.90
13203;DHT22;6666;51.626;7.530;2023-02-16T00:54:28;3.60;99.90
13203;DHT22;6666;51.626;7.530;2023-02-16T00:56:58;3.70;99.90
13203;DHT22;6666;51.626;7.530;2023-02-16T00:59:26;3.70;99.90
13203;DHT22;6666;51.626;7.530;2023-02-16T01:01:54;3.70;99.90
13203;DHT22;6666;51.626;7.530;2023-02-16T01:04:24;3.50;99.90
13203;DHT22;6666;51.626;7.530;2023-02-16T01:06:52;3.50;99.90
13203;DHT22;6666;51.626;7.530;2023-02-16T01:09:39;3.40;99.90
13203;DHT22;6666;51.626;7.530;2023-02-16T01:12:36;3.40;99.90
13203;DHT22;6666;51.626;7.530;2023-02-16T01:15:09;3.50;99.90
13203;DHT22;6666;51.626;7.530;2023-02-16T01:17:39;3.50;99.90
13203;DHT22;6666;51.626;7.530;2023-02-16T01:20:13;3.40;99.90
13203;DHT22;6666;51.626;7.530;2023-02-16T01:22:41;3.40;99.90
13203;DHT22;6666;51.626;7.530;2023-02-16T01:25:11;3.40;99.90
13203;DHT22;6666;51.626;7.530;2023-02-16T01:27:41;3.30;99.90
13203;DHT22;6666;51.626;7.530;2023-02-16T01:30:14;3.40;99.90
13203;DHT22;6666;51.626;7.530;2023-02-16T01:32:43;3.20;99.90
13203;DHT22;6666;51.626;7.530;2023-02-16T01:35:18;3.10;99.90
13203;DHT22;6666;51.626;7.530;2023-02-16T01:37:46;3.10;99.90
13203;DHT22;6666;51.626;7.530;2023-02-16T01:40:27;3.10;99.90
13203;DHT22;6666;51.626;7.530;2023-02-16T01:43:02;3.10;99.90
13203;DHT22;6666;51.626;7.530;2023-02-16T01:45:36;3.00;99.90
13203;DHT22;6666;51.626;7.530;2023-02-16T01:48:08;3.00;99.90
13203;DHT22;6666;51.626;7.530;2023-02-16T01:50:47;3.00;99.90
13203;DHT22;6666;51.626;7.530;2023-02-16T01:53:20;3.10;99.90
13203;DHT22;6666;51.626;7.530;2023-02-16T01:55:55;3.20;99.90
13203;DHT22;6666;51.626;7.530;2023-02-16T01:58:32;3.20;99.90
13203;DHT22;6666;51.626;7.530;2023-02-16T02:01:35;3.10;99.90
13203;DHT22;6666;51.626;7.530;2023-02-16T02:04:16;3.00;99.90
13203;DHT22;6666;51.626;7.530;2023-02-16T02:07:04;2.90;99.90
13203;DHT22;6666;51.626;7.530;2023-02-16T02:09:37;2.90;99.90
13203;DHT22;6666;51.626;7.530;2023-02-16T02:12:14;2.90;99.90
13203;DHT22;6666;51.626;7.530;2023-02-16T02:14:45;2.90;99.90
13203;DHT22;6666;51.626;7.530;2023-02-16T02:17:18;2.80;99.90
13203;DHT22;6666;51.626;7.530;2023-02-16T02:19:55;2.80;99.90
13203;DHT22;6666;51.626;7.530;2023-02-16T02:32:10;2.70;99.90
13203;DHT22;6666;51.626;7.530;2023-02-16T02:34:53;2.50;99.90
13203;DHT22;6666;51.626;7.530;2023-02-16T02:37:38;2.50;99.90
13203;DHT22;6666;51.626;7.530;2023-02-16T02:40:11;2.60;99.90
13203;DHT22;6666;51.626;7.530;2023-02-16T02:42:47;2.50;99.90
13203;DHT22;6666;51.626;7.530;2023-02-16T02:45:23;2.50;99.90
13203;DHT22;6666;51.626;7.530;2023-02-16T02:47:53;2.50;99.90
13203;DHT22;6666;51.626;7.530;2023-02-16T02:50:36;2.40;99.90
13203;DHT22;6666;51.626;7.530;2023-02-16T02:53:11;2.50;99.90
13203;DHT22;6666;51.626;7.530;2023-02-16T02:55:44;2.50;99.90
13203;DHT22;6666;51.626;7.530;2023-02-16T02:58:33;2.50;99.90
13203;DHT22;6666;51.626;7.530;2023-02-16T03:01:21;2.60;99.90
13203;DHT22;6666;51.626;7.530;2023-02-16T03:03:53;2.50;99.90
13203;DHT22;6666;51.626;7.530;2023-02-16T03:06:26;2.50;99.90
13203;DHT22;6666;51.626;7.530;2023-02-16T03:09:00;2.50;99.90
13203;DHT22;6666;51.626;7.530;2023-02-16T03:11:29;2.40;99.90
13203;DHT22;6666;51.626;7.530;2023-02-16T03:14:17;2.30;99.90
13203;DHT22;6666;51.626;7.530;2023-02-16T03:16:50;2.30;99.90
13203;DHT22;6666;51.626;7.530;2023-02-16T03:19:39;2.30;99.90
13203;DHT22;6666;51.626;7.530;2023-02-16T03:22:26;2.20;99.90
13203;DHT22;6666;51.626;7.530;2023-02-16T03:25:13;2.30;99.90
13203;DHT22;6666;51.626;7.530;2023-02-16T03:28:01;2.30;99.90
13203;DHT22;6666;51.626;7.530;2023-02-16T03:30:49;2.30;99.90
13203;DHT22;6666;51.626;7.530;2023-02-16T03:33:19;2.40;99.90
13203;DHT22;6666;51.626;7.530;2023-02-16T03:35:49;2.50;99.90
13203;DHT22;6666;51.626;7.530;2023-02-16T03:38:18;2.40;99.90
13203;DHT22;6666;51.626;7.530;2023-02-16T03:40:48;2.30;99.90
13203;DHT22;6666;51.626;7.530;2023-02-16T03:43:17;2.40;99.90
13203;DHT22;6666;51.626;7.530;2023-02-16T03:45:45;2.40;99.90
13203;DHT22;6666;51.626;7.530;2023-02-16T03:48:14;2.40;99.90
13203;DHT22;6666;51.626;7.530;2023-02-16T03:50:43;2.40;99.90
13203;DHT22;6666;51.626;7.530;2023-02-16T03:53:11;2.40;99.90
13203;DHT22;6666;51.626;7.530;2023-02-16T03:55:43;2.40;99.90
13203;DHT22;6666;51.626;7.530;2023-02-16T03:58:14;2.40;99.90
13203;DHT22;6666;51.626;7.530;2023-02-16T04:00:42;2.30;99.90
13203;DHT22;6666;51.626;7.530;2023-02-16T04:03:11;2.20;99.90
13203;DHT22;6666;51.626;7.530;2023-02-16T04:05:40;2.30;99.90
13203;DHT22;6666;51.626;7.530;2023-02-16T04:08:10;2.20;99.90
13203;DHT22;6666;51.626;7.530;2023-02-16T04:10:38;2.30;99.90
13203;DHT22;6666;51.626;7.530;2023-02-16T04:13:07;2.20;99.90
13203;DHT22;6666;51.626;7.530;2023-02-16T04:15:34;2.20;99.90
13203;DHT22;6666;51.626;7.530;2023-02-16T04:18:03;2.20;99.90
13203;DHT22;6666;51.626;7.530;2023-02-16T04:20:32;2.20;99.90
13203;DHT22;6666;51.626;7.530;2023-02-16T04:23:01;2.20;99.90
13203;DHT22;6666;51.626;7.530;2023-02-16T04:25:31;2.20;99.90
13203;DHT22;6666;51.626;7.530;2023-02-16T04:28:00;2.20;99.90
13203;DHT22;6666;51.626;7.530;2023-02-16T04:30:29;2.20;99.90
13203;DHT22;6666;51.626;7.530;2023-02-16T04:32:58;2.10;99.90
13203;DHT22;6666;51.626;7.530;2023-02-16T04:35:26;2.00;99.90
13203;DHT22;6666;51.626;7.530;2023-02-16T04:37:55;2.00;99.90
13203;DHT22;6666;51.626;7.530;2023-02-16T04:40:23;2.00;99.90
13203;DHT22;6666;51.626;7.530;2023-02-16T04:42:52;2.00;99.90
13203;DHT22;6666;51.626;7.530;2023-02-16T04:45:21;1.90;99.90
13203;DHT22;6666;51.626;7.530;2023-02-16T04:47:49;2.00;99.90
13203;DHT22;6666;51.626;7.530;2023-02-16T04:50:18;2.00;99.90
13203;DHT22;6666;51.626;7.530;2023-02-16T04:52:46;2.00;99.90
13203;DHT22;6666;51.626;7.530;2023-02-16T04:55:14;2.00;99.90
13203;DHT22;6666;51.626;7.530;2023-02-16T04:57:42;2.10;99.90
13203;DHT22;6666;51.626;7.530;2023-02-16T05:00:13;2.10;99.90
13203;DHT22;6666;51.626;7.530;2023-02-16T05:02:41;2.20;99.90
13203;DHT22;6666;51.626;7.530;2023-02-16T05:05:09;2.20;99.90
13203;DHT22;6666;51.626;7.530;2023-02-16T05:07:38;2.20;99.90
13203;DHT22;6666;51.626;7.530;2023-02-16T05:10:07;2.20;99.90
13203;DHT22;6666;51.626;7.530;2023-02-16T05:12:35;2.00;99.90
13203;DHT22;6666;51.626;7.530;2023-02-16T05:15:22;2.00;99.90
13203;DHT22;6666;51.626;7.530;2023-02-16T05:17:51;1.90;99.90
13203;DHT22;6666;51.626;7.530;2023-02-16T05:20:19;1.90;99.90
13203;DHT22;6666;51.626;7.530;2023-02-16T05:23:08;1.90;99.90
13203;DHT22;6666;51.626;7.530;2023-02-16T05:25:36;1.90;99.90
13203;DHT22;6666;51.626;7.530;2023-02-16T05:28:04;1.90;99.90
13203;DHT22;6666;51.626;7.530;2023-02-16T05:30:34;1.90;99.90
13203;DHT22;6666;51.626;7.530;2023-02-16T05:33:02;1.90;99.90
13203;DHT22;6666;51.626;7.530;2023-02-16T05:35:32;1.80;99.90
13203;DHT22;6666;51.626;7.530;2023-02-16T05:38:01;1.80;99.90
13203;DHT22;6666;51.626;7.530;2023-02-16T05:40:29;1.80;99.90
13203;DHT22;6666;51.626;7.530;2023-02-16T05:42:57;1.70;99.90
13203;DHT22;6666;51.626;7.530;2023-02-16T05:45:26;1.70;99.90
13203;DHT22;6666;51.626;7.530;2023-02-16T05:47:55;1.80;99.90
13203;DHT22;6666;51.626;7.530;2023-02-16T05:50:23;1.80;99.90
13203;DHT22;6666;51.626;7.530;2023-02-16T05:52:52;1.90;99.90
13203;DHT22;6666;51.626;7.530;2023-02-16T05:55:20;1.90;99.90
13203;DHT22;6666;51.626;7.530;2023-02-16T05:57:48;1.80;99.90
13203;DHT22;6666;51.626;7.530;2023-02-16T06:00:17;1.80;99.90
13203;DHT22;6666;51.626;7.530;2023-02-16T06:02:45;1.90;99.90
13203;DHT22;6666;51.626;7.530;2023-02-16T06:05:15;2.00;99.90
13203;DHT22;6666;51.626;7.530;2023-02-16T06:07:44;1.90;99.90
13203;DHT22;6666;51.626;7.530;2023-02-16T06:10:12;1.80;99.90
13203;DHT22;6666;51.626;7.530;2023-02-16T06:12:42;1.80;99.90
13203;DHT22;6666;51.626;7.530;2023-02-16T06:15:11;1.90;99.90
13203;DHT22;6666;51.626;7.530;2023-02-16T06:17:39;1.90;99.90
13203;DHT22;6666;51.626;7.530;2023-02-16T06:20:11;1.90;99.90
13203;DHT22;6666;51.626;7.530;2023-02-16T06:22:40;1.80;99.90
13203;DHT22;6666;51.626;7.530;2023-02-16T06:25:08;1.70;99.90
13203;DHT22;6666;51.626;7.530;2023-02-16T06:27:37;1.60;99.90
13203;DHT22;6666;51.626;7.530;2023-02-16T06:30:06;1.60;99.90
13203;DHT22;6666;51.626;7.530;2023-02-16T06:32:35;1.70;99.90
13203;DHT22;6666;51.626;7.530;2023-02-16T06:35:04;1.80;99.90
13203;DHT22;6666;51.626;7.530;2023-02-16T06:37:32;1.80;99.90
13203;DHT22;6666;51.626;7.530;2023-02-16T06:40:02;1.80;99.90
13203;DHT22;6666;51.626;7.530;2023-02-16T06:42:31;1.90;99.90
13203;DHT22;6666;51.626;7.530;2023-02-16T06:44:59;1.90;99.90
13203;DHT22;6666;51.626;7.530;2023-02-16T06:47:27;1.90;99.90
13203;DHT22;6666;51.626;7.530;2023-02-16T06:49:55;2.00;99.90
13203;DHT22;6666;51.626;7.530;2023-02-16T06:52:24;2.00;99.90
13203;DHT22;6666;51.626;7.530;2023-02-16T06:54:52;2.00;99.90
13203;DHT22;6666;51.626;7.530;2023-02-16T06:57:22;2.10;99.90
13203;DHT22;6666;51.626;7.530;2023-02-16T06:59:50;2.20;99.90
13203;DHT22;6666;51.626;7.530;2023-02-16T07:02:18;2.30;99.90
13203;DHT22;6666;51.626;7.530;2023-02-16T07:04:47;2.40;99.90
13203;DHT22;6666;51.626;7.530;2023-02-16T07:07:15;2.40;99.90
13203;DHT22;6666;51.626;7.530;2023-02-16T07:09:43;2.50;99.90
13203;DHT22;6666;51.626;7.530;2023-02-16T07:12:13;2.60;99.90
13203;DHT22;6666;51.626;7.530;2023-02-16T07:14:43;2.70;99.90
13203;DHT22;6666;51.626;7.530;2023-02-16T07:17:11;2.90;99.90
13203;DHT22;6666;51.626;7.530;2023-02-16T07:19:39;3.00;99.90
13203;DHT22;6666;51.626;7.530;2023-02-16T07:22:08;2.90;99.90
13203;DHT22;6666;51.626;7.530;2023-02-16T07:24:36;3.00;99.90
13203;DHT22;6666;51.626;7.530;2023-02-16T07:27:05;3.00;99.90
13203;DHT22;6666;51.626;7.530;2023-02-16T07:29:34;3.00;99.90
13203;DHT22;6666;51.626;7.530;2023-02-16T07:32:04;3.10;99.90
13203;DHT22;6666;51.626;7.530;2023-02-16T07:34:32;3.20;99.90
13203;DHT22;6666;51.626;7.530;2023-02-16T07:37:01;3.30;99.90
13203;DHT22;6666;51.626;7.530;2023-02-16T07:39:29;3.30;99.90
13203;DHT22;6666;51.626;7.530;2023-02-16T07:41:57;3.30;99.90
13203;DHT22;6666;51.626;7.530;2023-02-16T07:44:26;3.50;99.90
13203;DHT22;6666;51.626;7.530;2023-02-16T07:46:54;3.60;99.90
13203;DHT22;6666;51.626;7.530;2023-02-16T07:49:24;3.60;99.90
13203;DHT22;6666;51.626;7.530;2023-02-16T07:51:52;3.70;99.90
13203;DHT22;6666;51.626;7.530;2023-02-16T07:54:21;3.60;99.90
13203;DHT22;6666;51.626;7.530;2023-02-16T07:56:49;3.70;99.90
13203;DHT22;6666;51.626;7.530;2023-02-16T07:59:17;3.70;99.90
13203;DHT22;6666;51.626;7.530;2023-02-16T08:01:45;3.70;99.90
13203;DHT22;6666;51.626;7.530;2023-02-16T08:04:14;3.70;99.90
13203;DHT22;6666;51.626;7.530;2023-02-16T08:06:43;3.80;99.90
13203;DHT22;6666;51.626;7.530;2023-02-16T08:09:14;3.90;99.90
13203;DHT22;6666;51.626;7.530;2023-02-16T08:11:42;4.00;99.90
13203;DHT22;6666;51.626;7.530;2023-02-16T08:14:11;4.20;99.90
13203;DHT22;6666;51.626;7.530;2023-02-16T08:16:39;4.20;99.90
13203;DHT22;6666;51.626;7.530;2023-02-16T08:19:07;4.40;99.90
13203;DHT22;6666;51.626;7.530;2023-02-16T08:21:38;4.50;99.90
13203;DHT22;6666;51.626;7.530;2023-02-16T08:24:11;4.60;99.90
13203;DHT22;6666;51.626;7.530;2023-02-16T08:26:40;4.70;99.90
13203;DHT22;6666;51.626;7.530;2023-02-16T08:29:10;4.90;99.90
13203;DHT22;6666;51.626;7.530;2023-02-16T08:31:40;5.10;99.90
13203;DHT22;6666;51.626;7.530;2023-02-16T08:34:09;5.30;99.90
13203;DHT22;6666;51.626;7.530;2023-02-16T08:36:38;5.50;99.90
13203;DHT22;6666;51.626;7.530;2023-02-16T08:39:11;5.80;99.90
13203;DHT22;6666;51.626;7.530;2023-02-16T08:41:42;5.90;99.90
13203;DHT22;6666;51.626;7.530;2023-02-16T08:44:11;6.00;99.90
13203;DHT22;6666;51.626;7.530;2023-02-16T08:46:43;6.10;99.90
13203;DHT22;6666;51.626;7.530;2023-02-16T08:49:11;6.20;99.90
13203;DHT22;6666;51.626;7.530;2023-02-16T08:51:43;6.20;99.90
13203;DHT22;6666;51.626;7.530;2023-02-16T08:54:16;6.30;99.90
13203;DHT22;6666;51.626;7.530;2023-02-16T08:56:45;6.40;99.90
13203;DHT22;6666;51.626;7.530;2023-02-16T08:59:17;6.50;99.90
13203;DHT22;6666;51.626;7.530;2023-02-16T09:01:45;6.60;99.90
13203;DHT22;6666;51.626;7.530;2023-02-16T09:04:14;6.70;99.90
13203;DHT22;6666;51.626;7.530;2023-02-16T09:06:44;6.70;99.90
13203;DHT22;6666;51.626;7.530;2023-02-16T09:09:16;6.80;99.90
13203;DHT22;6666;51.626;7.530;2023-02-16T09:11:44;6.90;99.90
13203;DHT22;6666;51.626;7.530;2023-02-16T09:14:13;7.00;99.90
13203;DHT22;6666;51.626;7.530;2023-02-16T09:16:42;7.20;99.90
13203;DHT22;6666;51.626;7.530;2023-02-16T09:19:13;7.30;99.90
13203;DHT22;6666;51.626;7.530;2023-02-16T09:21:42;7.50;99.90
13203;DHT22;6666;51.626;7.530;2023-02-16T09:24:11;7.60;99.90
13203;DHT22;6666;51.626;7.530;2023-02-16T09:26:40;7.80;99.90
13203;DHT22;6666;51.626;7.530;2023-02-16T09:29:11;7.90;99.90
13203;DHT22;6666;51.626;7.530;2023-02-16T09:31:41;8.10;99.90
13203;DHT22;6666;51.626;7.530;2023-02-16T09:34:15;8.20;99.90
13203;DHT22;6666;51.626;7.530;2023-02-16T09:36:44;8.30;99.90
13203;DHT22;6666;51.626;7.530;2023-02-16T09:39:13;8.30;99.90
13203;DHT22;6666;51.626;7.530;2023-02-16T09:41:59;8.30;99.90
13203;DHT22;6666;51.626;7.530;2023-02-16T09:44:37;8.30;99.90
13203;DHT22;6666;51.626;7.530;2023-02-16T09:47:13;8.50;99.90
13203;DHT22;6666;51.626;7.530;2023-02-16T09:49:45;8.60;99.90
13203;DHT22;6666;51.626;7.530;2023-02-16T09:52:20;8.70;99.90
13203;DHT22;6666;51.626;7.530;2023-02-16T09:54:52;8.70;99.90
13203;DHT22;6666;51.626;7.530;2023-02-16T09:57:32;8.80;99.90
13203;DHT22;6666;51.626;7.530;2023-02-16T10:00:09;8.90;99.90
13203;DHT22;6666;51.626;7.530;2023-02-16T10:02:46;9.00;99.90
13203;DHT22;6666;51.626;7.530;2023-02-16T10:05:23;9.10;99.90
13203;DHT22;6666;51.626;7.530;2023-02-16T10:07:59;9.10;99.90
13203;DHT22;6666;51.626;7.530;2023-02-16T10:10:34;9.20;99.90
13203;DHT22;6666;51.626;7.530;2023-02-16T10:13:14;9.20;99.90
13203;DHT22;6666;51.626;7.530;2023-02-16T10:15:44;9.30;99.90
13203;DHT22;6666;51.626;7.530;2023-02-16T10:18:19;9.40;99.90
13203;DHT22;6666;51.626;7.530;2023-02-16T10:20:51;9.40;99.90
13203;DHT22;6666;51.626;7.530;2023-02-16T10:23:41;9.40;99.90
13203;DHT22;6666;51.626;7.530;2023-02-16T10:26:17;9.40;99.90
13203;DHT22;6666;51.626;7.530;2023-02-16T10:28:52;9.50;99.90
13203;DHT22;6666;51.626;7.530;2023-02-16T10:31:29;9.40;99.90
13203;DHT22;6666;51.626;7.530;2023-02-16T10:34:19;9.20;99.90
13203;DHT22;6666;51.626;7.530;2023-02-16T10:37:07;9.10;99.90
13203;DHT22;6666;51.626;7.530;2023-02-16T10:39:45;9.10;99.90
13203;DHT22;6666;51.626;7.530;2023-02-16T10:42:19;9.10;99.90
13203;DHT22;6666;51.626;7.530;2023-02-16T10:44:57;9.10;99.90
13203;DHT22;6666;51.626;7.530;2023-02-16T10:47:31;9.10;99.90
13203;DHT22;6666;51.626;7.530;2023-02-16T10:50:01;9.00;99.90
13203;DHT22;6666;51.626;7.530;2023-02-16T10:52:34;9.10;99.90
13203;DHT22;6666;51.626;7.530;2023-02-16T10:55:03;9.00;99.90
13203;DHT22;6666;51.626;7.530;2023-02-16T10:57:32;9.00;99.90
13203;DHT22;6666;51.626;7.530;2023-02-16T11:00:06;9.00;99.90
13203;DHT22;6666;51.626;7.530;2023-02-16T11:02:40;9.00;99.90
13203;DHT22;6666;51.626;7.530;2023-02-16T11:05:31;9.00;99.90
13203;DHT22;6666;51.626;7.530;2023-02-16T11:08:00;9.00;99.90
13203;DHT22;6666;51.626;7.530;2023-02-16T11:10:42;9.00;99.90
13203;DHT22;6666;51.626;7.530;2023-02-16T11:13:25;9.10;99.90
13203;DHT22;6666;51.626;7.530;2023-02-16T11:15:58;9.20;99.90
13203;DHT22;6666;51.626;7.530;2023-02-16T11:18:31;9.30;99.90
13203;DHT22;6666;51.626;7.530;2023-02-16T11:21:00;9.40;99.90
13203;DHT22;6666;51.626;7.530;2023-02-16T11:23:32;9.50;99.90
13203;DHT22;6666;51.626;7.530;2023-02-16T11:26:03;9.60;99.90
13203;DHT22;6666;51.626;7.530;2023-02-16T11:28:34;9.70;99.90
13203;DHT22;6666;51.626;7.530;2023-02-16T11:31:16;9.80;99.90
13203;DHT22;6666;51.626;7.530;2023-02-16T11:33:57;9.90;99.90
13203;DHT22;6666;51.626;7.530;2023-02-16T11:36:31;9.90;99.90
13203;DHT22;6666;51.626;7.530;2023-02-16T11:39:02;10.10;99.90
13203;DHT22;6666;51.626;7.530;2023-02-16T11:41:33;10.10;99.90
13203;DHT22;6666;51.626;7.530;2023-02-16T11:44:02;10.20;99.90
13203;DHT22;6666;51.626;7.530;2023-02-16T11:46:39;10.30;99.90
13203;DHT22;6666;51.626;7.530;2023-02-16T11:49:26;10.30;99.90
13203;DHT22;6666;51.626;7.530;2023-02-16T11:51:56;10.50;99.90
13203;DHT22;6666;51.626;7.530;2023-02-16T11:54:24;10.50;99.90
13203;DHT22;6666;51.626;7.530;2023-02-16T11:57:05;10.70;99.90
13203;DHT22;6666;51.626;7.530;2023-02-16T11:59:36;10.60;99.90
13203;DHT22;6666;51.626;7.530;2023-02-16T12:02:41;10.70;99.90
13203;DHT22;6666;51.626;7.530;2023-02-16T12:05:24;10.70;99.90
13203;DHT22;6666;51.626;7.530;2023-02-16T12:08:09;10.80;99.90
13203;DHT22;6666;51.626;7.530;2023-02-16T12:10:56;10.90;99.90
13203;DHT22;6666;51.626;7.530;2023-02-16T12:13:35;10.90;99.90
13203;DHT22;6666;51.626;7.530;2023-02-16T12:16:15;11.00;99.90
13203;DHT22;6666;51.626;7.530;2023-02-16T12:19:02;11.00;99.90
13203;DHT22;6666;51.626;7.530;2023-02-16T12:21:38;11.00;99.90
13203;DHT22;6666;51.626;7.530;2023-02-16T12:24:16;10.90;99.90
13203;DHT22;6666;51.626;7.530;2023-02-16T12:26:50;10.80;99.90
13203;DHT22;6666;51.626;7.530;2023-02-16T12:29:38;10.70;99.90
13203;DHT22;6666;51.626;7.530;2023-02-16T12:32:25;10.60;99.90
13203;DHT22;6666;51.626;7.530;2023-02-16T12:35:15;10.50;99.90
13203;DHT22;6666;51.626;7.530;2023-02-16T12:37:49;10.30;99.90
13203;DHT22;6666;51.626;7.530;2023-02-16T12:40:30;10.30;99.90
13203;DHT22;6666;51.626;7.530;2023-02-16T12:43:14;10.20;99.90
13203;DHT22;6666;51.626;7.530;2023-02-16T12:45:50;10.10;99.90
13203;DHT22;6666;51.626;7.530;2023-02-16T12:48:31;10.10;99.90
13203;DHT22;6666;51.626;7.530;2023-02-16T12:51:08;9.90;99.90
13203;DHT22;6666;51.626;7.530;2023-02-16T12:53:42;9.80;99.90
13203;DHT22;6666;51.626;7.530;2023-02-16T12:56:16;9.80;99.90
13203;DHT22;6666;51.626;7.530;2023-02-16T12:58:48;9.70;99.90
13203;DHT22;6666;51.626;7.530;2023-02-16T13:01:23;9.70;99.90
13203;DHT22;6666;51.626;7.530;2023-02-16T13:03:55;9.80;99.90
13203;DHT22;6666;51.626;7.530;2023-02-16T13:06:29;9.90;99.90
13203;DHT22;6666;51.626;7.530;2023-02-16T13:09:12;10.00;99.90
13203;DHT22;6666;51.626;7.530;2023-02-16T13:11:48;10.00;99.90
13203;DHT22;6666;51.626;7.530;2023-02-16T13:14:20;10.10;99.90
13203;DHT22;6666;51.626;7.530;2023-02-16T13:16:53;10.20;99.90
13203;DHT22;6666;51.626;7.530;2023-02-16T13:19:22;10.10;99.90
13203;DHT22;6666;51.626;7.530;2023-02-16T13:22:06;10.20;99.90
13203;DHT22;6666;51.626;7.530;2023-02-16T13:24:45;10.30;99.90
13203;DHT22;6666;51.626;7.530;2023-02-16T13:27:27;10.30;99.90
13203;DHT22;6666;51.626;7.530;2023-02-16T13:30:32;10.40;99.90
13203;DHT22;6666;51.626;7.530;2023-02-16T13:33:22;10.30;99.90
13203;DHT22;6666;51.626;7.530;2023-02-16T13:39:34;10.20;99.90
13203;DHT22;6666;51.626;7.530;2023-02-16T13:45:21;10.10;99.90
13203;DHT22;6666;51.626;7.530;2023-02-16T13:47:51;10.10;99.90
13203;DHT22;6666;51.626;7.530;2023-02-16T13:50:29;10.10;99.90
13203;DHT22;6666;51.626;7.530;2023-02-16T13:53:10;10.20;99.90
13203;DHT22;6666;51.626;7.530;2023-02-16T13:55:45;10.20;99.90
13203;DHT22;6666;51.626;7.530;2023-02-16T13:58:30;10.30;99.90
13203;DHT22;6666;51.626;7.530;2023-02-16T14:01:36;10.40;99.90
13203;DHT22;6666;51.626;7.530;2023-02-16T14:04:10;10.40;99.90
13203;DHT22;6666;51.626;7.530;2023-02-16T14:06:40;10.30;99.90
13203;DHT22;6666;51.626;7.530;2023-02-16T14:09:45;10.20;99.90
13203;DHT22;6666;51.626;7.530;2023-02-16T14:12:19;10.10;99.90
13203;DHT22;6666;51.626;7.530;2023-02-16T14:14:59;10.10;99.90
13203;DHT22;6666;51.626;7.530;2023-02-16T14:17:31;10.10;99.90
13203;DHT22;6666;51.626;7.530;2023-02-16T14:20:03;10.10;99.90
13203;DHT22;6666;51.626;7.530;2023-02-16T14:22:42;10.10;99.90
13203;DHT22;6666;51.626;7.530;2023-02-16T14:25:32;10.10;99.90
13203;DHT22;6666;51.626;7.530;2023-02-16T14:28:02;9.90;99.90
13203;DHT22;6666;51.626;7.530;2023-02-16T14:30:34;9.90;99.90
13203;DHT22;6666;51.626;7.530;2023-02-16T14:33:13;9.80;99.90
13203;DHT22;6666;51.626;7.530;2023-02-16T14:35:45;9.80;99.90
13203;DHT22;6666;51.626;7.530;2023-02-16T14:38:17;9.80;99.90
13203;DHT22;6666;51.626;7.530;2023-02-16T14:40:51;9.80;99.90
13203;DHT22;6666;51.626;7.530;2023-02-16T14:43:27;9.70;99.90
13203;DHT22;6666;51.626;7.530;2023-02-16T14:46:20;9.60;99.90
13203;DHT22;6666;51.626;7.530;2023-02-16T14:52:28;9.60;99.90
13203;DHT22;6666;51.626;7.530;2023-02-16T14:55:38;9.60;99.90
13203;DHT22;6666;51.626;7.530;2023-02-16T14:58:20;9.60;99.90
13203;DHT22;6666;51.626;7.530;2023-02-16T15:00:52;9.50;99.90
13203;DHT22;6666;51.626;7.530;2023-02-16T15:03:24;9.50;99.90
13203;DHT22;6666;51.626;7.530;2023-02-16T15:05:57;9.40;99.90
13203;DHT22;6666;51.626;7.530;2023-02-16T15:08:27;9.40;99.90
13203;DHT22;6666;51.626;7.530;2023-02-16T15:11:02;9.40;99.90
13203;DHT22;6666;51.626;7.530;2023-02-16T15:13:40;9.40;99.90
13203;DHT22;6666;51.626;7.530;2023-02-16T15:16:11;9.40;99.90
13203;DHT22;6666;51.626;7.530;2023-02-16T15:18:44;9.50;99.90
13203;DHT22;6666;51.626;7.530;2023-02-16T15:21:18;9.60;99.90
13203;DHT22;6666;51.626;7.530;2023-02-16T15:23:48;9.70;99.90
13203;DHT22;6666;51.626;7.530;2023-02-16T15:26:20;9.80;99.90
13203;DHT22;6666;51.626;7.530;2023-02-16T15:28:53;9.80;99.90
13203;DHT22;6666;51.626;7.530;2023-02-16T15:31:26;9.90;99.90
13203;DHT22;6666;51.626;7.530;2023-02-16T15:33:59;9.90;99.90
13203;DHT22;6666;51.626;7.530;2023-02-16T15:36:33;9.80;99.90
13203;DHT22;6666;51.626;7.530;2023-02-16T15:39:04;9.80;99.90
13203;DHT22;6666;51.626;7.530;2023-02-16T15:41:38;9.80;99.90
13203;DHT22;6666;51.626;7.530;2023-02-16T15:44:26;9.70;99.90
13203;DHT22;6666;51.626;7.530;2023-02-16T15:47:05;9.70;99.90
13203;DHT22;6666;51.626;7.530;2023-02-16T15:49:35;9.70;99.90
13203;DHT22;6666;51.626;7.530;2023-02-16T15:52:11;9.60;99.90
13203;DHT22;6666;51.626;7.530;2023-02-16T15:54:40;9.60;99.90
13203;DHT22;6666;51.626;7.530;2023-02-16T15:57:13;9.60;99.90
13203;DHT22;6666;51.626;7.530;2023-02-16T15:59:48;9.60;99.90
13203;DHT22;6666;51.626;7.530;2023-02-16T16:02:19;9.70;99.90
13203;DHT22;6666;51.626;7.530;2023-02-16T16:04:50;9.70;99.90
13203;DHT22;6666;51.626;7.530;2023-02-16T16:07:26;9.80;99.90
13203;DHT22;6666;51.626;7.530;2023-02-16T16:09:55;9.80;99.90
13203;DHT22;6666;51.626;7.530;2023-02-16T16:12:24;9.80;99.90
13203;DHT22;6666;51.626;7.530;2023-02-16T16:14:54;9.90;99.90
13203;DHT22;6666;51.626;7.530;2023-02-16T16:17:25;9.80;99.90
13203;DHT22;6666;51.626;7.530;2023-02-16T16:19:56;9.80;99.90
13203;DHT22;6666;51.626;7.530;2023-02-16T16:22:33;9.70;99.90
13203;DHT22;6666;51.626;7.530;2023-02-16T16:25:05;9.80;99.90
13203;DHT22;6666;51.626;7.530;2023-02-16T16:27:54;9.80;99.90
13203;DHT22;6666;51.626;7.530;2023-02-16T16:30:28;9.70;99.90
13203;DHT22;6666;51.626;7.530;2023-02-16T16:33:01;9.70;99.90
13203;DHT22;6666;51.626;7.530;2023-02-16T16:35:35;9.60;99.90
13203;DHT22;6666;51.626;7.530;2023-02-16T16:38:19;9.70;99.90
13203;DHT22;6666;51.626;7.530;2023-02-16T16:40:49;9.70;99.90
13203;DHT22;6666;51.626;7.530;2023-02-16T16:43:18;9.70;99.90
13203;DHT22;6666;51.626;7.530;2023-02-16T16:45:50;9.70;99.90
13203;DHT22;6666;51.626;7.530;2023-02-16T16:48:24;9.70;99.90
13203;DHT22;6666;51.626;7.530;2023-02-16T16:51:08;9.70;99.90
13203;DHT22;6666;51.626;7.530;2023-02-16T16:53:42;9.70;99.90
13203;DHT22;6666;51.626;7.530;2023-02-16T16:56:12;9.60;99.90
13203;DHT22;6666;51.626;7.530;2023-02-16T16:58:41;9.60;99.90
13203;DHT22;6666;51.626;7.530;2023-02-16T17:01:11;9.60;99.90